Flight Track Log - Related Links

Times and Time Zones

All times are in EDT time to prevent confusion due to time zone crossing. See the KAP169 flight status page for this flight to view local times or setup timezone preferences in your user account.

Time Position Orientation Groundspeed Altitude Reporting Facility
EDT Latitude Longitude Course Direction KTS MPH feet Rate Location/Type
Mon 01:33:26 PM 41.1333 -73.7667 56° Northeast 127 146 3,600  Level New York TRACON
Mon 01:34:25 PM 41.1667 -73.7333 37° Northeast 129 148 4,300 655 Climbing New York TRACON
Mon 01:35:25 PM 41.1833 -73.7000 56° Northeast 138 159 4,900 650 Climbing New York TRACON
Mon 01:36:25 PM 41.2167 -73.6667 37° Northeast 141 162 5,600 626 Climbing New York TRACON
Mon 01:37:00 PM 41.2545 -73.5748 27° Northeast  Level FlightAware Approximate
Mon 01:37:20 PM 41.2333 -73.6333 56° Northeast 145 167 6,100  Level New York TRACON
Mon 01:38:20 PM 41.2667 -73.6000 37° Northeast 147 169 6,800 450 Climbing New York TRACON
Mon 01:39:20 PM 41.3000 -73.5500 48° Northeast 163 188 7,000 100 Climbing New York TRACON
Mon 01:40:20 PM 41.3167 -73.4833 72° East 184 212 7,000  Level New York TRACON
Mon 01:41:20 PM 41.3333 -73.4167 72° East 177 204 7,000  Level New York TRACON
Mon 01:42:25 PM 41.3500 -73.3667 66° East 177 204 7,000 -40 Level New York TRACON
Mon 01:43:50 PM 41.3844 -73.2783 63° Northeast 173 199 6,900 -41 Descending Boston Center
Mon 01:44:51 PM 41.4056 -73.2206 64° Northeast 172 198 6,900 49 Level Boston Center
Mon 01:45:52 PM 41.4247 -73.1628 66° East 172 198 7,000  Climbing Boston Center
Mon 01:46:53 PM 41.4419 -73.1019 69° East 174 200 6,900 -49 Descending Boston Center
Mon 01:47:54 PM 41.4631 -73.0439 64° Northeast 172 198 6,900  Level Boston Center
Mon 01:48:55 PM 41.4842 -72.9886 63° Northeast 170 196 6,900  Level Boston Center
Mon 01:49:55 PM 41.5072 -72.9308 62° Northeast 168 193 6,900  Level Boston Center
Mon 01:50:56 PM 41.5264 -72.8753 65° Northeast 166 191 6,900  Level Boston Center
Mon 01:52:03 PM 41.5267 -72.8061 90° East 174 200 6,900  Level Boston Center
Mon 01:52:58 PM 41.5247 -72.7450 92° East 173 199 6,900  Level Boston Center
Mon 01:53:58 PM 41.5206 -72.6814 95° East 175 201 6,900  Level Boston Center
Mon 01:55:01 PM 41.5208 -72.6147 90° East 171 197 6,900  Level Boston Center
Mon 01:56:02 PM 41.5189 -72.5539 92° East 169 194 6,900  Level Boston Center
Mon 01:56:57 PM 41.5167 -72.4956 93° East 168 193 6,900 49 Level Boston Center
Mon 01:58:04 PM 41.5125 -72.4261 95° East 179 206 7,000 45 Climbing Boston Center
Mon 01:59:10 PM 41.4939 -72.3569 110° East 178 205 7,000  Level Boston Center
Mon 02:00:17 PM 41.4728 -72.2850 111° Southeast 176 203 7,000  Level Boston Center
Mon 02:01:19 PM 41.4581 -72.2242 108° East 175 201 7,000  Level Boston Center
Mon 02:02:19 PM 41.4414 -72.1631 110° East 176 203 7,000  Level Boston Center
Mon 02:03:14 PM 41.4267 -72.1050 109° East 182 209 7,000  Level Boston Center
Mon 02:04:09 PM 41.4139 -72.0469 106° East 175 201 7,000  Level Boston Center
Mon 02:05:16 PM 41.3992 -71.9808 107° East 183 211 7,000  Level Boston Center
Mon 02:06:17 PM 41.3822 -71.9200 110° East 174 200 7,000  Level Boston Center
Mon 02:07:18 PM 41.3672 -71.8508 106° East 184 212 7,000  Level Boston Center
Mon 02:08:19 PM 41.3503 -71.7875 110° East 183 211 7,000  Level Boston Center
Mon 02:09:13 PM 41.3353 -71.7325 110° East 176 203 7,000  Level Boston Center
Mon 02:10:14 PM 41.3183 -71.6661 109° East 182 209 7,000  Level Boston Center
Mon 02:11:03 PM 41.3075 -71.6194 107° East 181 208 7,000  Level Boston Center
Mon 02:12:10 PM 41.2881 -71.5450 109° East 178 205 7,000  Level Boston Center
Mon 02:13:05 PM 41.2753 -71.4872 106° East 183 211 7,000  Level Boston Center
Mon 02:14:18 PM 41.2558 -71.4103 109° East 181 208 7,000  Level Boston Center
Mon 02:16:00 PM 41.2303 -71.3146 110° East  Level FlightAware Approximate
Mon 02:23:00 PM 41.1241 -70.9217 110° East  Level FlightAware Approximate
Mon 02:24:00 PM 41.1088 -70.8656 110° East  Level FlightAware Approximate
Mon 02:25:00 PM 41.1045 -70.8088 76° East  Level FlightAware Approximate
Mon 02:26:00 PM 41.1150 -70.7509 76° East  Level FlightAware Approximate
Mon 02:27:00 PM 41.1255 -70.6929 76° East  Level FlightAware Approximate
Mon 02:28:00 PM 41.1375 -70.6356 69° East  Level FlightAware Approximate
Mon 02:29:00 PM 41.1534 -70.5798 69° East  Level FlightAware Approximate
Mon 02:30:00 PM 41.1667 -70.5234 90° East  Level FlightAware Approximate
Mon 02:31:00 PM 41.1761 -70.4653 76° East  Level FlightAware Approximate
Mon 02:32:00 PM 41.1867 -70.4073 76° East  Level FlightAware Approximate
Mon 02:33:00 PM 41.1973 -70.3493 76° East  Level FlightAware Approximate
Mon 02:34:00 PM 41.2078 -70.2913 76° East  Level FlightAware Approximate
Mon 02:35:00 PM 41.2183 -70.2333 76° East  Level FlightAware Approximate
Mon 02:36:00 PM 41.2288 -70.1752 76° East  Level FlightAware Approximate
Mon 02:37:00 PM 41.2388 -70.1171 77° East  Level FlightAware Approximate
Mon 02:38:00 PM 41.2485 -70.0588 77° East  Level FlightAware Approximate
Mon 02:39:00 PM 41.2500 -70.0500 77° East  Level FlightAware Approximate
Mon 02:40:00 PM 41.2531 -70.0603 77° East  Level Estimated
Mon 02:41:00 PM 41.2531 -70.0603 77° East  Level Estimated
Mon 02:42:00 PM 41.2531 -70.0603 77° East  Level Estimated
Mon 02:43:00 PM 41.2531 -70.0603 77° East  Level Estimated
Mon 02:44:00 PM 41.2531 -70.0603 77° East  Level Estimated
Mon 02:45:00 PM 41.2531 -70.0603 77° East  Level Estimated

Login

Don't have an account? Register now (free) for customized features, flight alerts, and more!